sensor_id;sensor_type;location;lat;lon;timestamp;P1;durP1;ratioP1;P2;durP2;ratioP2
40252;SDS011;25972;51.854;4.534;2023-08-31T00:00:50;6.28;;;1.60;;
40252;SDS011;25972;51.854;4.534;2023-08-31T00:03:23;4.28;;;1.45;;
40252;SDS011;25972;51.854;4.534;2023-08-31T00:06:03;5.00;;;1.70;;
40252;SDS011;25972;51.854;4.534;2023-08-31T00:08:35;7.32;;;1.45;;
40252;SDS011;25972;51.854;4.534;2023-08-31T00:11:03;5.82;;;1.88;;
40252;SDS011;25972;51.854;4.534;2023-08-31T00:13:37;8.15;;;2.25;;
40252;SDS011;25972;51.854;4.534;2023-08-31T00:16:05;7.43;;;2.55;;
40252;SDS011;25972;51.854;4.534;2023-08-31T00:18:41;5.40;;;2.20;;
40252;SDS011;25972;51.854;4.534;2023-08-31T00:21:11;7.93;;;2.15;;
40252;SDS011;25972;51.854;4.534;2023-08-31T00:23:45;8.57;;;1.98;;
40252;SDS011;25972;51.854;4.534;2023-08-31T00:26:13;8.18;;;1.98;;
40252;SDS011;25972;51.854;4.534;2023-08-31T00:28:42;6.00;;;1.75;;
40252;SDS011;25972;51.854;4.534;2023-08-31T00:31:15;5.70;;;2.40;;
40252;SDS011;25972;51.854;4.534;2023-08-31T00:33:56;8.23;;;2.15;;
40252;SDS011;25972;51.854;4.534;2023-08-31T00:36:30;8.18;;;2.40;;
40252;SDS011;25972;51.854;4.534;2023-08-31T00:39:07;8.68;;;2.08;;
40252;SDS011;25972;51.854;4.534;2023-08-31T00:41:50;6.50;;;1.70;;
40252;SDS011;25972;51.854;4.534;2023-08-31T00:44:26;5.40;;;1.65;;
40252;SDS011;25972;51.854;4.534;2023-08-31T00:47:09;6.28;;;1.40;;
40252;SDS011;25972;51.854;4.534;2023-08-31T00:49:35;4.22;;;1.35;;
40252;SDS011;25972;51.854;4.534;2023-08-31T00:52:02;3.90;;;1.55;;
40252;SDS011;25972;51.854;4.534;2023-08-31T00:54:31;2.55;;;1.15;;
40252;SDS011;25972;51.854;4.534;2023-08-31T00:56:57;2.78;;;0.95;;
40252;SDS011;25972;51.854;4.534;2023-08-31T00:59:23;2.45;;;1.10;;
40252;SDS011;25972;51.854;4.534;2023-08-31T01:01:51;3.95;;;1.10;;
40252;SDS011;25972;51.854;4.534;2023-08-31T01:04:28;5.25;;;1.30;;
40252;SDS011;25972;51.854;4.534;2023-08-31T01:07:04;3.53;;;1.38;;
40252;SDS011;25972;51.854;4.534;2023-08-31T01:09:43;4.03;;;1.30;;
40252;SDS011;25972;51.854;4.534;2023-08-31T01:12:17;2.80;;;1.33;;
40252;SDS011;25972;51.854;4.534;2023-08-31T01:14:56;5.45;;;1.35;;
40252;SDS011;25972;51.854;4.534;2023-08-31T01:17:25;4.10;;;1.38;;
40252;SDS011;25972;51.854;4.534;2023-08-31T01:19:53;2.47;;;1.35;;
40252;SDS011;25972;51.854;4.534;2023-08-31T01:22:25;2.83;;;1.27;;
40252;SDS011;25972;51.854;4.534;2023-08-31T01:24:57;4.40;;;1.45;;
40252;SDS011;25972;51.854;4.534;2023-08-31T01:29:55;4.25;;;1.58;;
40252;SDS011;25972;51.854;4.534;2023-08-31T01:32:25;3.65;;;1.45;;
40252;SDS011;25972;51.854;4.534;2023-08-31T01:34:53;3.78;;;1.45;;
40252;SDS011;25972;51.854;4.534;2023-08-31T01:37:25;4.70;;;1.90;;
40252;SDS011;25972;51.854;4.534;2023-08-31T01:39:55;3.80;;;1.70;;
40252;SDS011;25972;51.854;4.534;2023-08-31T01:42:29;8.52;;;2.15;;
40252;SDS011;25972;51.854;4.534;2023-08-31T01:44:56;8.32;;;2.17;;
40252;SDS011;25972;51.854;4.534;2023-08-31T01:47:24;5.82;;;2.67;;
40252;SDS011;25972;51.854;4.534;2023-08-31T01:49:51;8.35;;;3.05;;
40252;SDS011;25972;51.854;4.534;2023-08-31T01:52:18;6.22;;;2.58;;
40252;SDS011;25972;51.854;4.534;2023-08-31T01:54:45;7.93;;;2.92;;
40252;SDS011;25972;51.854;4.534;2023-08-31T01:57:12;10.05;;;2.80;;
40252;SDS011;25972;51.854;4.534;2023-08-31T02:00:02;8.07;;;2.67;;
40252;SDS011;25972;51.854;4.534;2023-08-31T02:02:39;6.80;;;3.08;;
40252;SDS011;25972;51.854;4.534;2023-08-31T02:05:07;9.98;;;2.95;;
40252;SDS011;25972;51.854;4.534;2023-08-31T02:07:33;7.63;;;3.25;;
40252;SDS011;25972;51.854;4.534;2023-08-31T02:10:01;7.18;;;2.95;;
40252;SDS011;25972;51.854;4.534;2023-08-31T02:12:32;10.48;;;3.20;;
40252;SDS011;25972;51.854;4.534;2023-08-31T02:14:59;8.43;;;3.45;;
40252;SDS011;25972;51.854;4.534;2023-08-31T02:17:26;6.07;;;2.80;;
40252;SDS011;25972;51.854;4.534;2023-08-31T02:19:53;9.07;;;3.45;;
40252;SDS011;25972;51.854;4.534;2023-08-31T02:22:19;8.60;;;3.30;;
40252;SDS011;25972;51.854;4.534;2023-08-31T02:24:46;7.45;;;3.55;;
40252;SDS011;25972;51.854;4.534;2023-08-31T02:27:14;8.25;;;3.35;;
40252;SDS011;25972;51.854;4.534;2023-08-31T02:29:42;11.85;;;3.58;;
40252;SDS011;25972;51.854;4.534;2023-08-31T02:32:11;11.85;;;3.60;;
40252;SDS011;25972;51.854;4.534;2023-08-31T02:34:39;8.13;;;3.63;;
40252;SDS011;25972;51.854;4.534;2023-08-31T02:37:05;10.27;;;3.70;;
40252;SDS011;25972;51.854;4.534;2023-08-31T02:39:31;7.25;;;3.33;;
40252;SDS011;25972;51.854;4.534;2023-08-31T02:41:58;8.15;;;3.53;;
40252;SDS011;25972;51.854;4.534;2023-08-31T02:44:24;7.57;;;2.92;;
40252;SDS011;25972;51.854;4.534;2023-08-31T02:46:51;6.93;;;3.08;;
40252;SDS011;25972;51.854;4.534;2023-08-31T02:49:18;7.70;;;2.92;;
40252;SDS011;25972;51.854;4.534;2023-08-31T02:51:45;6.40;;;3.00;;
40252;SDS011;25972;51.854;4.534;2023-08-31T02:54:11;7.20;;;2.53;;
40252;SDS011;25972;51.854;4.534;2023-08-31T02:56:37;6.32;;;2.83;;
40252;SDS011;25972;51.854;4.534;2023-08-31T02:59:03;10.98;;;2.83;;
40252;SDS011;25972;51.854;4.534;2023-08-31T03:01:29;8.80;;;2.80;;
40252;SDS011;25972;51.854;4.534;2023-08-31T03:03:57;7.57;;;2.67;;
40252;SDS011;25972;51.854;4.534;2023-08-31T03:06:24;6.75;;;2.67;;
40252;SDS011;25972;51.854;4.534;2023-08-31T03:08:51;8.68;;;2.47;;
40252;SDS011;25972;51.854;4.534;2023-08-31T03:11:18;5.55;;;2.80;;
40252;SDS011;25972;51.854;4.534;2023-08-31T03:13:46;8.73;;;2.40;;
40252;SDS011;25972;51.854;4.534;2023-08-31T03:16:13;5.15;;;2.00;;
40252;SDS011;25972;51.854;4.534;2023-08-31T03:18:39;3.63;;;1.80;;
40252;SDS011;25972;51.854;4.534;2023-08-31T03:21:06;6.03;;;2.05;;
40252;SDS011;25972;51.854;4.534;2023-08-31T03:23:33;4.50;;;1.92;;
40252;SDS011;25972;51.854;4.534;2023-08-31T03:25:59;3.80;;;1.88;;
40252;SDS011;25972;51.854;4.534;2023-08-31T03:28:31;3.60;;;1.90;;
40252;SDS011;25972;51.854;4.534;2023-08-31T03:30:57;8.38;;;1.90;;
40252;SDS011;25972;51.854;4.534;2023-08-31T03:33:24;7.78;;;1.90;;
40252;SDS011;25972;51.854;4.534;2023-08-31T03:35:50;6.15;;;1.60;;
40252;SDS011;25972;51.854;4.534;2023-08-31T03:38:19;3.85;;;1.90;;
40252;SDS011;25972;51.854;4.534;2023-08-31T03:40:52;4.35;;;1.60;;
40252;SDS011;25972;51.854;4.534;2023-08-31T03:43:19;1.83;;;1.40;;
40252;SDS011;25972;51.854;4.534;2023-08-31T03:45:45;5.65;;;2.03;;
40252;SDS011;25972;51.854;4.534;2023-08-31T03:48:12;5.15;;;1.58;;
40252;SDS011;25972;51.854;4.534;2023-08-31T03:50:39;4.45;;;1.60;;
40252;SDS011;25972;51.854;4.534;2023-08-31T03:53:05;5.53;;;1.67;;
40252;SDS011;25972;51.854;4.534;2023-08-31T03:55:33;5.07;;;1.58;;
40252;SDS011;25972;51.854;4.534;2023-08-31T03:58:02;5.78;;;1.70;;
40252;SDS011;25972;51.854;4.534;2023-08-31T04:00:29;4.72;;;1.70;;
40252;SDS011;25972;51.854;4.534;2023-08-31T04:02:55;7.18;;;2.05;;
40252;SDS011;25972;51.854;4.534;2023-08-31T04:05:22;3.38;;;1.42;;
40252;SDS011;25972;51.854;4.534;2023-08-31T04:07:48;8.93;;;1.88;;
40252;SDS011;25972;51.854;4.534;2023-08-31T04:10:15;2.88;;;1.67;;
40252;SDS011;25972;51.854;4.534;2023-08-31T04:12:42;5.53;;;1.60;;
40252;SDS011;25972;51.854;4.534;2023-08-31T04:15:08;3.55;;;1.45;;
40252;SDS011;25972;51.854;4.534;2023-08-31T04:17:35;3.10;;;1.60;;
40252;SDS011;25972;51.854;4.534;2023-08-31T04:20:01;3.65;;;1.67;;
40252;SDS011;25972;51.854;4.534;2023-08-31T04:22:31;3.67;;;1.35;;
40252;SDS011;25972;51.854;4.534;2023-08-31T04:24:57;2.45;;;1.60;;
40252;SDS011;25972;51.854;4.534;2023-08-31T04:27:23;4.15;;;1.30;;
40252;SDS011;25972;51.854;4.534;2023-08-31T04:29:51;5.97;;;1.70;;
40252;SDS011;25972;51.854;4.534;2023-08-31T04:32:17;5.55;;;1.63;;
40252;SDS011;25972;51.854;4.534;2023-08-31T04:34:44;4.72;;;1.58;;
40252;SDS011;25972;51.854;4.534;2023-08-31T04:37:10;3.70;;;1.67;;
40252;SDS011;25972;51.854;4.534;2023-08-31T04:39:37;3.17;;;1.50;;
40252;SDS011;25972;51.854;4.534;2023-08-31T04:42:03;2.50;;;1.60;;
40252;SDS011;25972;51.854;4.534;2023-08-31T04:44:30;5.75;;;1.80;;
40252;SDS011;25972;51.854;4.534;2023-08-31T04:46:58;6.30;;;1.70;;
40252;SDS011;25972;51.854;4.534;2023-08-31T04:49:24;3.92;;;1.77;;
40252;SDS011;25972;51.854;4.534;2023-08-31T04:51:51;5.85;;;1.80;;
40252;SDS011;25972;51.854;4.534;2023-08-31T04:54:18;3.80;;;1.65;;
40252;SDS011;25972;51.854;4.534;2023-08-31T04:56:44;4.60;;;1.88;;
40252;SDS011;25972;51.854;4.534;2023-08-31T04:59:10;4.63;;;1.70;;
40252;SDS011;25972;51.854;4.534;2023-08-31T05:01:37;6.88;;;1.92;;
40252;SDS011;25972;51.854;4.534;2023-08-31T05:04:04;7.82;;;2.10;;
40252;SDS011;25972;51.854;4.534;2023-08-31T05:06:31;4.78;;;1.88;;
40252;SDS011;25972;51.854;4.534;2023-08-31T05:08:58;4.75;;;2.42;;
40252;SDS011;25972;51.854;4.534;2023-08-31T05:11:24;6.32;;;2.20;;
40252;SDS011;25972;51.854;4.534;2023-08-31T05:13:52;7.60;;;2.13;;
40252;SDS011;25972;51.854;4.534;2023-08-31T05:16:18;3.40;;;1.55;;
40252;SDS011;25972;51.854;4.534;2023-08-31T05:18:44;3.53;;;1.77;;
40252;SDS011;25972;51.854;4.534;2023-08-31T05:21:12;9.02;;;1.88;;
40252;SDS011;25972;51.854;4.534;2023-08-31T05:23:38;3.47;;;1.60;;
40252;SDS011;25972;51.854;4.534;2023-08-31T05:26:04;2.83;;;1.38;;
40252;SDS011;25972;51.854;4.534;2023-08-31T05:28:31;4.55;;;1.88;;
40252;SDS011;25972;51.854;4.534;2023-08-31T05:30:57;3.78;;;1.83;;
40252;SDS011;25972;51.854;4.534;2023-08-31T05:33:25;4.47;;;1.73;;
40252;SDS011;25972;51.854;4.534;2023-08-31T05:35:52;7.22;;;1.92;;
40252;SDS011;25972;51.854;4.534;2023-08-31T05:38:20;6.03;;;2.10;;
40252;SDS011;25972;51.854;4.534;2023-08-31T05:40:47;5.15;;;1.70;;
40252;SDS011;25972;51.854;4.534;2023-08-31T05:43:14;6.28;;;1.90;;
40252;SDS011;25972;51.854;4.534;2023-08-31T05:45:40;5.07;;;1.73;;
40252;SDS011;25972;51.854;4.534;2023-08-31T05:48:07;5.97;;;1.98;;
40252;SDS011;25972;51.854;4.534;2023-08-31T05:50:33;4.03;;;1.50;;
40252;SDS011;25972;51.854;4.534;2023-08-31T05:53:02;3.67;;;1.48;;
40252;SDS011;25972;51.854;4.534;2023-08-31T05:55:31;3.05;;;1.58;;
40252;SDS011;25972;51.854;4.534;2023-08-31T05:58:00;3.97;;;1.85;;
40252;SDS011;25972;51.854;4.534;2023-08-31T06:00:28;4.20;;;1.80;;
40252;SDS011;25972;51.854;4.534;2023-08-31T06:02:54;9.10;;;2.88;;
40252;SDS011;25972;51.854;4.534;2023-08-31T06:05:20;5.07;;;2.42;;
40252;SDS011;25972;51.854;4.534;2023-08-31T06:07:47;6.80;;;2.45;;
40252;SDS011;25972;51.854;4.534;2023-08-31T06:10:13;8.48;;;2.92;;
40252;SDS011;25972;51.854;4.534;2023-08-31T06:12:41;7.57;;;2.63;;
40252;SDS011;25972;51.854;4.534;2023-08-31T06:15:09;8.35;;;2.78;;
40252;SDS011;25972;51.854;4.534;2023-08-31T06:17:35;10.15;;;3.50;;
40252;SDS011;25972;51.854;4.534;2023-08-31T06:20:01;6.78;;;3.05;;
40252;SDS011;25972;51.854;4.534;2023-08-31T06:22:30;9.10;;;2.90;;
40252;SDS011;25972;51.854;4.534;2023-08-31T06:24:56;9.40;;;3.38;;
40252;SDS011;25972;51.854;4.534;2023-08-31T06:27:22;6.85;;;2.90;;
40252;SDS011;25972;51.854;4.534;2023-08-31T06:29:49;7.70;;;2.97;;
40252;SDS011;25972;51.854;4.534;2023-08-31T06:32:15;6.10;;;3.17;;
40252;SDS011;25972;51.854;4.534;2023-08-31T06:34:42;5.05;;;2.67;;
40252;SDS011;25972;51.854;4.534;2023-08-31T06:37:08;6.70;;;2.60;;
40252;SDS011;25972;51.854;4.534;2023-08-31T06:39:34;6.70;;;2.90;;
40252;SDS011;25972;51.854;4.534;2023-08-31T06:42:01;7.32;;;2.85;;
40252;SDS011;25972;51.854;4.534;2023-08-31T06:44:29;7.93;;;2.72;;
40252;SDS011;25972;51.854;4.534;2023-08-31T06:46:57;7.88;;;3.40;;
40252;SDS011;25972;51.854;4.534;2023-08-31T06:49:26;8.73;;;3.33;;
40252;SDS011;25972;51.854;4.534;2023-08-31T06:51:53;9.98;;;2.90;;
40252;SDS011;25972;51.854;4.534;2023-08-31T06:54:19;10.15;;;3.47;;
40252;SDS011;25972;51.854;4.534;2023-08-31T06:56:45;6.65;;;3.10;;
40252;SDS011;25972;51.854;4.534;2023-08-31T06:59:11;9.13;;;3.28;;
40252;SDS011;25972;51.854;4.534;2023-08-31T07:01:37;7.65;;;3.17;;
40252;SDS011;25972;51.854;4.534;2023-08-31T07:04:05;9.43;;;2.90;;
40252;SDS011;25972;51.854;4.534;2023-08-31T07:06:31;9.38;;;3.50;;
40252;SDS011;25972;51.854;4.534;2023-08-31T07:08:58;8.63;;;3.40;;
40252;SDS011;25972;51.854;4.534;2023-08-31T07:11:25;8.23;;;3.25;;
40252;SDS011;25972;51.854;4.534;2023-08-31T07:13:52;9.65;;;3.50;;
40252;SDS011;25972;51.854;4.534;2023-08-31T07:16:18;4.57;;;2.30;;
40252;SDS011;25972;51.854;4.534;2023-08-31T07:18:44;8.95;;;3.55;;
40252;SDS011;25972;51.854;4.534;2023-08-31T07:21:11;10.80;;;3.25;;
40252;SDS011;25972;51.854;4.534;2023-08-31T07:23:37;9.60;;;3.70;;
40252;SDS011;25972;51.854;4.534;2023-08-31T07:26:03;6.88;;;2.90;;
40252;SDS011;25972;51.854;4.534;2023-08-31T07:28:30;9.20;;;3.47;;
40252;SDS011;25972;51.854;4.534;2023-08-31T07:31:05;7.55;;;3.03;;
40252;SDS011;25972;51.854;4.534;2023-08-31T07:33:32;9.23;;;2.15;;
40252;SDS011;25972;51.854;4.534;2023-08-31T07:36:00;8.77;;;3.28;;
40252;SDS011;25972;51.854;4.534;2023-08-31T07:38:28;4.15;;;1.85;;
40252;SDS011;25972;51.854;4.534;2023-08-31T07:40:55;8.75;;;3.10;;
40252;SDS011;25972;51.854;4.534;2023-08-31T07:43:21;7.47;;;2.78;;
40252;SDS011;25972;51.854;4.534;2023-08-31T07:45:47;8.45;;;3.33;;
40252;SDS011;25972;51.854;4.534;2023-08-31T07:48:14;7.00;;;2.45;;
40252;SDS011;25972;51.854;4.534;2023-08-31T07:50:42;5.35;;;2.50;;
40252;SDS011;25972;51.854;4.534;2023-08-31T07:53:08;6.10;;;2.40;;
40252;SDS011;25972;51.854;4.534;2023-08-31T07:55:36;6.85;;;2.47;;
40252;SDS011;25972;51.854;4.534;2023-08-31T07:58:02;5.53;;;2.50;;
40252;SDS011;25972;51.854;4.534;2023-08-31T08:00:29;9.63;;;2.67;;
40252;SDS011;25972;51.854;4.534;2023-08-31T08:02:55;5.55;;;2.13;;
40252;SDS011;25972;51.854;4.534;2023-08-31T08:05:21;7.05;;;2.70;;
40252;SDS011;25972;51.854;4.534;2023-08-31T08:07:47;5.88;;;2.20;;
40252;SDS011;25972;51.854;4.534;2023-08-31T08:10:13;5.70;;;2.45;;
40252;SDS011;25972;51.854;4.534;2023-08-31T08:13:08;7.57;;;2.53;;
40252;SDS011;25972;51.854;4.534;2023-08-31T08:15:35;7.90;;;2.70;;
40252;SDS011;25972;51.854;4.534;2023-08-31T08:18:04;6.40;;;2.20;;
40252;SDS011;25972;51.854;4.534;2023-08-31T08:20:30;7.10;;;2.22;;
40252;SDS011;25972;51.854;4.534;2023-08-31T08:22:57;6.45;;;1.83;;
40252;SDS011;25972;51.854;4.534;2023-08-31T08:25:23;4.30;;;1.70;;
40252;SDS011;25972;51.854;4.534;2023-08-31T08:27:49;6.82;;;1.83;;
40252;SDS011;25972;51.854;4.534;2023-08-31T08:30:17;4.35;;;1.20;;
40252;SDS011;25972;51.854;4.534;2023-08-31T08:32:44;5.28;;;2.15;;
40252;SDS011;25972;51.854;4.534;2023-08-31T08:35:10;4.45;;;1.83;;
40252;SDS011;25972;51.854;4.534;2023-08-31T08:37:37;8.63;;;1.90;;
40252;SDS011;25972;51.854;4.534;2023-08-31T08:40:03;5.88;;;1.85;;
40252;SDS011;25972;51.854;4.534;2023-08-31T08:42:30;2.72;;;1.30;;
40252;SDS011;25972;51.854;4.534;2023-08-31T08:44:58;4.15;;;1.40;;
40252;SDS011;25972;51.854;4.534;2023-08-31T08:47:27;4.60;;;1.55;;
40252;SDS011;25972;51.854;4.534;2023-08-31T08:49:55;4.65;;;1.50;;
40252;SDS011;25972;51.854;4.534;2023-08-31T08:52:23;2.63;;;1.40;;
40252;SDS011;25972;51.854;4.534;2023-08-31T08:54:49;7.18;;;1.70;;
40252;SDS011;25972;51.854;4.534;2023-08-31T08:57:16;3.58;;;1.30;;
40252;SDS011;25972;51.854;4.534;2023-08-31T08:59:42;3.08;;;1.30;;
40252;SDS011;25972;51.854;4.534;2023-08-31T09:02:08;3.30;;;1.10;;
40252;SDS011;25972;51.854;4.534;2023-08-31T09:04:38;2.58;;;1.15;;
40252;SDS011;25972;51.854;4.534;2023-08-31T09:07:04;2.03;;;1.05;;
40252;SDS011;25972;51.854;4.534;2023-08-31T09:09:31;3.90;;;1.30;;
40252;SDS011;25972;51.854;4.534;2023-08-31T09:12:06;5.47;;;1.50;;
40252;SDS011;25972;51.854;4.534;2023-08-31T09:14:37;2.58;;;1.13;;
40252;SDS011;25972;51.854;4.534;2023-08-31T09:17:03;5.18;;;1.25;;
40252;SDS011;25972;51.854;4.534;2023-08-31T09:19:29;2.25;;;1.08;;
40252;SDS011;25972;51.854;4.534;2023-08-31T09:21:57;2.67;;;0.90;;
40252;SDS011;25972;51.854;4.534;2023-08-31T09:24:23;3.67;;;1.02;;
40252;SDS011;25972;51.854;4.534;2023-08-31T09:26:53;2.40;;;1.10;;
40252;SDS011;25972;51.854;4.534;2023-08-31T09:29:20;3.78;;;1.17;;
40252;SDS011;25972;51.854;4.534;2023-08-31T09:31:47;3.95;;;1.05;;
40252;SDS011;25972;51.854;4.534;2023-08-31T09:34:13;1.70;;;1.00;;
40252;SDS011;25972;51.854;4.534;2023-08-31T09:36:40;2.65;;;0.98;;
40252;SDS011;25972;51.854;4.534;2023-08-31T09:39:09;1.88;;;0.90;;
40252;SDS011;25972;51.854;4.534;2023-08-31T09:41:44;3.10;;;1.27;;
40252;SDS011;25972;51.854;4.534;2023-08-31T09:44:21;0.60;;;0.52;;
40252;SDS011;25972;51.854;4.534;2023-08-31T09:46:48;2.92;;;1.10;;
40252;SDS011;25972;51.854;4.534;2023-08-31T09:49:14;4.70;;;1.17;;
40252;SDS011;25972;51.854;4.534;2023-08-31T09:51:43;1.67;;;0.90;;
40252;SDS011;25972;51.854;4.534;2023-08-31T09:54:13;4.28;;;1.05;;
40252;SDS011;25972;51.854;4.534;2023-08-31T09:56:41;3.25;;;1.08;;
40252;SDS011;25972;51.854;4.534;2023-08-31T09:59:09;2.47;;;1.25;;
40252;SDS011;25972;51.854;4.534;2023-08-31T10:01:40;2.50;;;0.93;;
40252;SDS011;25972;51.854;4.534;2023-08-31T10:04:07;3.03;;;1.00;;
40252;SDS011;25972;51.854;4.534;2023-08-31T10:06:34;1.73;;;0.82;;
40252;SDS011;25972;51.854;4.534;2023-08-31T10:09:04;0.70;;;0.70;;
40252;SDS011;25972;51.854;4.534;2023-08-31T10:11:42;1.70;;;0.90;;
40252;SDS011;25972;51.854;4.534;2023-08-31T10:14:09;1.52;;;0.88;;
40252;SDS011;25972;51.854;4.534;2023-08-31T10:16:38;1.55;;;0.90;;
40252;SDS011;25972;51.854;4.534;2023-08-31T10:19:08;0.93;;;0.52;;
40252;SDS011;25972;51.854;4.534;2023-08-31T10:21:34;1.75;;;0.93;;
40252;SDS011;25972;51.854;4.534;2023-08-31T10:24:05;3.22;;;0.88;;
40252;SDS011;25972;51.854;4.534;2023-08-31T10:26:35;1.30;;;0.77;;
40252;SDS011;25972;51.854;4.534;2023-08-31T10:29:07;2.30;;;1.05;;
40252;SDS011;25972;51.854;4.534;2023-08-31T10:31:52;1.77;;;0.88;;
40252;SDS011;25972;51.854;4.534;2023-08-31T10:34:18;2.60;;;1.17;;
40252;SDS011;25972;51.854;4.534;2023-08-31T10:37:03;2.33;;;1.00;;
40252;SDS011;25972;51.854;4.534;2023-08-31T10:39:45;1.75;;;0.85;;
40252;SDS011;25972;51.854;4.534;2023-08-31T10:42:13;2.88;;;0.98;;
40252;SDS011;25972;51.854;4.534;2023-08-31T10:44:41;2.95;;;0.95;;
40252;SDS011;25972;51.854;4.534;2023-08-31T10:47:09;2.90;;;0.80;;
40252;SDS011;25972;51.854;4.534;2023-08-31T10:49:35;2.58;;;1.05;;
40252;SDS011;25972;51.854;4.534;2023-08-31T10:52:15;1.17;;;0.82;;
40252;SDS011;25972;51.854;4.534;2023-08-31T10:54:46;2.45;;;0.80;;
40252;SDS011;25972;51.854;4.534;2023-08-31T10:57:13;1.70;;;0.80;;
40252;SDS011;25972;51.854;4.534;2023-08-31T10:59:43;4.85;;;0.77;;
40252;SDS011;25972;51.854;4.534;2023-08-31T11:02:11;2.03;;;1.05;;
40252;SDS011;25972;51.854;4.534;2023-08-31T11:04:54;1.45;;;0.90;;
40252;SDS011;25972;51.854;4.534;2023-08-31T11:07:23;0.93;;;0.80;;
40252;SDS011;25972;51.854;4.534;2023-08-31T11:09:50;5.60;;;1.25;;
40252;SDS011;25972;51.854;4.534;2023-08-31T11:12:16;3.05;;;0.90;;
40252;SDS011;25972;51.854;4.534;2023-08-31T11:14:44;3.53;;;1.13;;
40252;SDS011;25972;51.854;4.534;2023-08-31T11:17:13;2.78;;;1.17;;
40252;SDS011;25972;51.854;4.534;2023-08-31T11:19:39;0.80;;;0.73;;
40252;SDS011;25972;51.854;4.534;2023-08-31T11:22:07;2.22;;;0.95;;
40252;SDS011;25972;51.854;4.534;2023-08-31T11:24:35;2.35;;;0.90;;
40252;SDS011;25972;51.854;4.534;2023-08-31T11:27:02;2.50;;;0.70;;
40252;SDS011;25972;51.854;4.534;2023-08-31T11:29:32;2.97;;;1.00;;
40252;SDS011;25972;51.854;4.534;2023-08-31T11:32:06;2.60;;;1.10;;
40252;SDS011;25972;51.854;4.534;2023-08-31T11:34:33;0.65;;;0.60;;
40252;SDS011;25972;51.854;4.534;2023-08-31T11:37:00;3.08;;;0.80;;
40252;SDS011;25972;51.854;4.534;2023-08-31T11:39:26;1.13;;;0.80;;
40252;SDS011;25972;51.854;4.534;2023-08-31T11:41:53;2.28;;;1.77;;
40252;SDS011;25972;51.854;4.534;2023-08-31T11:44:19;4.50;;;1.73;;
40252;SDS011;25972;51.854;4.534;2023-08-31T11:46:46;2.53;;;0.98;;
40252;SDS011;25972;51.854;4.534;2023-08-31T11:49:17;2.60;;;0.82;;
40252;SDS011;25972;51.854;4.534;2023-08-31T11:51:44;4.70;;;0.95;;
40252;SDS011;25972;51.854;4.534;2023-08-31T11:54:10;2.28;;;0.98;;
40252;SDS011;25972;51.854;4.534;2023-08-31T11:56:40;3.45;;;1.35;;
40252;SDS011;25972;51.854;4.534;2023-08-31T11:59:10;3.47;;;1.10;;
40252;SDS011;25972;51.854;4.534;2023-08-31T12:01:38;2.17;;;1.00;;
40252;SDS011;25972;51.854;4.534;2023-08-31T12:04:09;5.30;;;0.98;;
40252;SDS011;25972;51.854;4.534;2023-08-31T12:06:38;2.53;;;1.00;;
40252;SDS011;25972;51.854;4.534;2023-08-31T12:09:07;5.45;;;1.02;;
40252;SDS011;25972;51.854;4.534;2023-08-31T12:11:34;1.13;;;1.00;;
40252;SDS011;25972;51.854;4.534;2023-08-31T12:14:04;1.42;;;0.90;;
40252;SDS011;25972;51.854;4.534;2023-08-31T12:16:44;4.55;;;1.05;;
40252;SDS011;25972;51.854;4.534;2023-08-31T12:19:10;1.58;;;0.93;;
40252;SDS011;25972;51.854;4.534;2023-08-31T12:21:41;2.67;;;1.00;;
40252;SDS011;25972;51.854;4.534;2023-08-31T12:24:08;2.40;;;0.90;;
40252;SDS011;25972;51.854;4.534;2023-08-31T12:26:34;2.22;;;1.10;;
40252;SDS011;25972;51.854;4.534;2023-08-31T12:29:04;2.22;;;1.00;;
40252;SDS011;25972;51.854;4.534;2023-08-31T12:31:34;1.70;;;1.02;;
40252;SDS011;25972;51.854;4.534;2023-08-31T12:34:00;2.97;;;0.80;;
40252;SDS011;25972;51.854;4.534;2023-08-31T12:36:30;3.35;;;0.98;;
40252;SDS011;25972;51.854;4.534;2023-08-31T12:38:57;2.65;;;1.00;;
40252;SDS011;25972;51.854;4.534;2023-08-31T12:41:26;2.17;;;0.95;;
40252;SDS011;25972;51.854;4.534;2023-08-31T12:43:53;1.80;;;1.00;;
40252;SDS011;25972;51.854;4.534;2023-08-31T12:46:19;2.63;;;1.35;;
40252;SDS011;25972;51.854;4.534;2023-08-31T12:48:46;3.95;;;1.30;;
40252;SDS011;25972;51.854;4.534;2023-08-31T12:51:14;3.40;;;1.10;;
40252;SDS011;25972;51.854;4.534;2023-08-31T12:53:40;1.27;;;0.85;;
40252;SDS011;25972;51.854;4.534;2023-08-31T12:56:08;2.53;;;1.10;;
40252;SDS011;25972;51.854;4.534;2023-08-31T12:58:34;5.07;;;1.00;;
40252;SDS011;25972;51.854;4.534;2023-08-31T13:01:00;1.65;;;1.00;;
40252;SDS011;25972;51.854;4.534;2023-08-31T13:03:27;3.63;;;1.10;;
40252;SDS011;25972;51.854;4.534;2023-08-31T13:05:55;2.38;;;0.98;;
40252;SDS011;25972;51.854;4.534;2023-08-31T13:08:21;5.07;;;1.75;;
40252;SDS011;25972;51.854;4.534;2023-08-31T13:10:50;3.45;;;1.50;;
40252;SDS011;25972;51.854;4.534;2023-08-31T13:13:18;3.17;;;1.23;;
40252;SDS011;25972;51.854;4.534;2023-08-31T13:15:45;2.78;;;0.60;;
40252;SDS011;25972;51.854;4.534;2023-08-31T13:18:11;2.88;;;0.90;;
40252;SDS011;25972;51.854;4.534;2023-08-31T13:20:37;2.70;;;1.27;;
40252;SDS011;25972;51.854;4.534;2023-08-31T13:23:04;2.80;;;1.17;;
40252;SDS011;25972;51.854;4.534;2023-08-31T13:25:30;2.47;;;1.00;;
40252;SDS011;25972;51.854;4.534;2023-08-31T13:27:56;2.90;;;1.33;;
40252;SDS011;25972;51.854;4.534;2023-08-31T13:30:24;2.78;;;1.00;;
40252;SDS011;25972;51.854;4.534;2023-08-31T13:32:51;1.08;;;0.80;;
40252;SDS011;25972;51.854;4.534;2023-08-31T13:35:17;1.80;;;1.13;;
40252;SDS011;25972;51.854;4.534;2023-08-31T13:37:43;1.98;;;1.10;;
40252;SDS011;25972;51.854;4.534;2023-08-31T13:40:09;2.70;;;1.17;;
40252;SDS011;25972;51.854;4.534;2023-08-31T13:42:36;1.60;;;0.80;;
40252;SDS011;25972;51.854;4.534;2023-08-31T13:45:13;1.60;;;1.08;;
40252;SDS011;25972;51.854;4.534;2023-08-31T13:47:42;3.25;;;1.10;;
40252;SDS011;25972;51.854;4.534;2023-08-31T13:50:12;2.28;;;1.05;;
40252;SDS011;25972;51.854;4.534;2023-08-31T13:52:38;4.85;;;1.60;;
40252;SDS011;25972;51.854;4.534;2023-08-31T13:55:05;1.50;;;1.00;;
40252;SDS011;25972;51.854;4.534;2023-08-31T13:57:34;3.10;;;1.08;;
40252;SDS011;25972;51.854;4.534;2023-08-31T14:00:03;4.47;;;1.10;;
40252;SDS011;25972;51.854;4.534;2023-08-31T14:02:34;2.13;;;1.00;;
40252;SDS011;25972;51.854;4.534;2023-08-31T14:05:04;4.25;;;1.08;;
40252;SDS011;25972;51.854;4.534;2023-08-31T14:07:35;2.22;;;1.10;;
40252;SDS011;25972;51.854;4.534;2023-08-31T14:10:04;2.97;;;1.40;;
40252;SDS011;25972;51.854;4.534;2023-08-31T14:12:33;2.92;;;1.00;;
40252;SDS011;25972;51.854;4.534;2023-08-31T14:15:00;4.57;;;1.52;;
40252;SDS011;25972;51.854;4.534;2023-08-31T14:17:29;2.83;;;1.15;;
40252;SDS011;25972;51.854;4.534;2023-08-31T14:19:56;5.53;;;1.30;;
40252;SDS011;25972;51.854;4.534;2023-08-31T14:22:25;2.92;;;1.30;;
40252;SDS011;25972;51.854;4.534;2023-08-31T14:24:52;6.00;;;1.42;;
40252;SDS011;25972;51.854;4.534;2023-08-31T14:27:19;2.47;;;1.25;;
40252;SDS011;25972;51.854;4.534;2023-08-31T14:29:45;4.82;;;1.20;;
40252;SDS011;25972;51.854;4.534;2023-08-31T14:32:12;2.50;;;1.10;;
40252;SDS011;25972;51.854;4.534;2023-08-31T14:34:38;4.03;;;1.08;;
40252;SDS011;25972;51.854;4.534;2023-08-31T14:37:04;3.25;;;1.00;;
40252;SDS011;25972;51.854;4.534;2023-08-31T14:39:34;3.55;;;1.42;;
40252;SDS011;25972;51.854;4.534;2023-08-31T14:42:04;4.65;;;1.52;;
40252;SDS011;25972;51.854;4.534;2023-08-31T14:44:30;3.92;;;1.50;;
40252;SDS011;25972;51.854;4.534;2023-08-31T14:46:56;5.95;;;1.52;;
40252;SDS011;25972;51.854;4.534;2023-08-31T14:49:22;3.55;;;1.30;;
40252;SDS011;25972;51.854;4.534;2023-08-31T14:51:50;2.25;;;0.90;;
40252;SDS011;25972;51.854;4.534;2023-08-31T14:54:16;3.28;;;1.40;;
40252;SDS011;25972;51.854;4.534;2023-08-31T14:56:44;3.58;;;1.30;;